createdAt,value
2022-10-28T15:44:24.098Z,65.41
2022-10-28T15:45:24.094Z,65.91
2022-10-28T15:46:24.051Z,65.41
2022-10-28T15:47:24.025Z,65.50
2022-10-28T15:48:24.014Z,65.60
2022-10-28T15:49:23.989Z,65.00
2022-10-28T15:50:23.970Z,65.30
2022-10-28T15:51:24.014Z,66.20
2022-10-28T15:52:23.972Z,65.41
2022-10-28T15:53:23.948Z,65.20
2022-10-28T15:54:23.951Z,65.50
2022-10-28T15:55:35.544Z,65.10
2022-10-28T15:56:24.904Z,65.20
2022-10-28T15:57:32.993Z,65.00
2022-10-28T15:58:23.883Z,65.84
2022-10-28T15:59:23.893Z,65.64
2022-10-28T16:00:23.937Z,65.84
2022-10-28T16:01:24.136Z,65.70
2022-10-28T16:02:24.985Z,65.33
2022-10-28T16:03:23.879Z,65.73
2022-10-28T16:04:23.838Z,65.53
2022-10-28T16:05:25.425Z,65.53
2022-10-28T16:06:23.830Z,65.73
2022-10-28T16:07:23.833Z,64.43
2022-10-28T16:08:23.771Z,64.53
2022-10-28T16:09:23.763Z,65.13
2022-10-28T16:10:23.747Z,65.53
2022-10-28T16:11:23.741Z,65.03
2022-10-28T16:12:23.763Z,66.03
2022-10-28T16:13:23.719Z,65.03
2022-10-28T16:14:23.706Z,65.44
2022-10-28T16:15:23.694Z,65.16
2022-10-28T16:16:23.709Z,63.82
2022-10-28T16:17:23.738Z,65.56
2022-10-28T16:18:23.675Z,65.84
2022-10-28T16:19:23.664Z,65.64
2022-10-28T16:20:23.734Z,65.64
2022-10-28T16:21:23.624Z,65.47
2022-10-28T16:22:24.055Z,64.53
2022-10-28T16:23:23.604Z,65.56
2022-10-28T16:24:23.611Z,65.33
2022-10-28T16:25:23.583Z,65.77
2022-10-28T16:26:23.570Z,65.23
2022-10-28T16:27:23.558Z,65.67
2022-10-28T16:28:23.568Z,64.76
2022-10-28T16:29:23.535Z,65.87
2022-10-28T16:30:23.564Z,64.46
2022-10-28T16:31:23.518Z,64.96
2022-10-28T16:32:23.523Z,64.56
2022-10-28T16:33:23.496Z,64.66
2022-10-28T16:34:23.506Z,65.67
2022-10-28T16:35:23.470Z,65.56
2022-10-28T16:36:23.477Z,64.56
2022-10-28T16:37:23.474Z,65.47
2022-10-28T16:38:23.433Z,64.66
2022-10-28T16:39:23.428Z,64.76
2022-10-28T16:41:24.404Z,65.67
2022-10-28T16:42:23.433Z,65.97
2022-10-28T16:43:23.386Z,64.06
2022-10-28T16:44:23.366Z,64.76
2022-10-28T16:45:23.364Z,64.66
2022-10-28T16:46:23.345Z,65.56
2022-10-28T16:47:23.454Z,64.86
2022-10-28T16:48:23.342Z,64.76
2022-10-28T16:49:23.322Z,64.26
2022-10-28T16:50:23.309Z,64.86
2022-10-28T16:51:23.289Z,64.66
2022-10-28T16:52:23.296Z,64.66
2022-10-28T16:53:23.273Z,64.56
2022-10-28T16:54:23.280Z,64.56
2022-10-28T16:55:23.245Z,65.06
2022-10-28T16:56:23.306Z,64.89
2022-10-28T16:58:26.106Z,64.69
2022-10-28T16:59:23.215Z,65.59
2022-10-28T17:00:24.953Z,64.79
2022-10-28T17:01:23.327Z,64.99
2022-10-28T17:02:23.325Z,64.19
2022-10-28T17:03:23.165Z,64.49
2022-10-28T17:04:23.161Z,64.69
2022-10-28T17:05:23.154Z,63.82
2022-10-28T17:06:23.167Z,64.72
2022-10-28T17:07:23.123Z,64.62
2022-10-28T17:08:49.062Z,65.53
2022-10-28T17:09:24.111Z,65.73
2022-10-28T17:10:23.077Z,64.92
2022-10-28T17:11:23.116Z,65.62
2022-10-28T17:12:23.066Z,66.03
2022-10-28T17:13:23.092Z,64.72
2022-10-28T17:14:23.092Z,64.72
2022-10-28T17:15:23.024Z,65.56
2022-10-28T17:16:23.018Z,64.65
2022-10-28T17:17:23.049Z,65.96
2022-10-28T17:18:23.039Z,65.36
2022-10-28T17:19:23.001Z,65.66
2022-10-28T17:20:22.978Z,65.79
2022-10-28T17:21:22.971Z,66.47
2022-10-28T17:22:22.946Z,64.75
2022-10-28T17:23:22.938Z,65.69
2022-10-28T17:24:22.954Z,65.59
2022-10-28T17:25:22.933Z,65.69
2022-10-28T17:26:22.900Z,65.79
2022-10-28T17:27:22.907Z,65.49
2022-10-28T17:28:22.903Z,65.69
2022-10-28T17:29:22.872Z,65.72
2022-10-28T17:30:22.923Z,65.82
2022-10-28T17:31:25.118Z,66.13
2022-10-28T17:32:22.843Z,65.52
2022-10-28T17:33:22.848Z,64.72
2022-10-28T17:34:22.899Z,66.13
2022-10-28T17:35:22.802Z,65.49
2022-10-28T17:36:22.820Z,65.69
2022-10-28T17:37:22.850Z,65.19
2022-10-28T17:38:22.767Z,65.42
2022-10-28T17:39:26.156Z,66.02
2022-10-28T17:40:22.749Z,65.62
2022-10-28T17:41:22.747Z,65.42
2022-10-28T17:43:33.136Z,65.45
2022-10-28T17:44:33.083Z,65.75
2022-10-28T17:45:33.131Z,66.96
2022-10-28T17:46:33.035Z,66.36
2022-10-28T17:47:32.999Z,66.76
2022-10-28T17:48:33.007Z,67.07
2022-10-28T17:49:32.998Z,67.16
2022-10-28T17:50:33.026Z,67.30
2022-10-28T17:51:33.062Z,66.66
2022-10-28T17:52:35.764Z,67.30
2022-10-28T17:53:33.912Z,66.99
2022-10-28T17:54:32.878Z,67.40
2022-10-28T17:55:32.941Z,67.40
2022-10-28T17:56:42.841Z,68.10
2022-10-28T17:57:33.094Z,67.90
2022-10-28T17:58:33.032Z,67.70
2022-10-28T17:59:32.956Z,68.33
2022-10-28T18:00:32.999Z,67.73
2022-10-28T18:01:33.015Z,68.04
2022-10-28T18:02:32.936Z,68.24
2022-10-28T18:03:37.245Z,68.24
2022-10-28T18:04:33.773Z,68.24
2022-10-28T18:05:32.738Z,68.33
2022-10-28T18:06:32.735Z,67.63
2022-10-28T18:07:32.741Z,68.13
2022-10-28T18:08:32.769Z,68.24
2022-10-28T18:09:32.699Z,68.04
2022-10-28T18:10:32.681Z,68.54
2022-10-28T18:11:32.727Z,68.33
2022-10-28T18:12:32.680Z,68.64
2022-10-28T18:13:32.696Z,68.33
2022-10-28T18:14:32.634Z,68.04
2022-10-28T18:15:32.626Z,68.13
2022-10-28T18:16:32.682Z,68.27
2022-10-28T18:17:32.662Z,68.27
2022-10-28T18:18:32.601Z,68.17
2022-10-28T18:19:32.609Z,68.17
2022-10-28T18:20:32.588Z,68.57
2022-10-28T18:21:32.580Z,68.98
2022-10-28T18:22:32.553Z,68.47
2022-10-28T18:23:32.628Z,68.60
2022-10-28T18:24:32.562Z,68.60
2022-10-28T18:25:32.519Z,68.91
2022-10-28T18:26:32.601Z,69.11
2022-10-28T18:27:32.518Z,69.11
2022-10-28T18:28:32.484Z,69.11
2022-10-28T18:29:32.477Z,69.45
2022-10-28T18:30:32.512Z,69.71
2022-10-28T18:31:32.475Z,69.51
2022-10-28T18:32:32.470Z,69.95
2022-10-28T18:33:32.470Z,69.95
2022-10-28T18:34:32.489Z,70.15
2022-10-28T18:35:32.486Z,69.55
2022-10-28T18:36:32.397Z,69.95
2022-10-28T18:37:32.402Z,69.45
2022-10-28T18:38:32.380Z,69.65
2022-10-28T18:39:32.368Z,70.56
2022-10-28T18:40:32.376Z,69.85
2022-10-28T18:41:32.424Z,70.76
2022-10-28T18:42:32.332Z,70.49
2022-10-28T18:43:32.329Z,70.89
2022-10-28T18:44:32.330Z,70.59
2022-10-28T18:45:32.288Z,70.79
2022-10-28T18:46:32.314Z,70.69
2022-10-28T18:47:32.271Z,70.49
2022-10-28T18:48:32.331Z,70.29
2022-10-28T18:49:32.266Z,70.29
2022-10-28T18:50:32.277Z,70.29
2022-10-28T18:51:32.245Z,70.29
2022-10-28T18:52:32.243Z,70.39
2022-10-28T18:53:32.244Z,69.38
2022-10-28T18:54:32.212Z,70.18
2022-10-28T18:55:32.219Z,70.49
2022-10-28T18:56:32.166Z,69.78
2022-10-28T18:57:32.159Z,69.78
2022-10-28T18:58:32.180Z,70.18
2022-10-28T18:59:32.187Z,70.59
2022-10-28T19:00:32.167Z,70.86
2022-10-28T19:01:32.282Z,71.50
2022-10-28T19:02:32.357Z,71.20
2022-10-28T19:03:32.094Z,71.67
2022-10-28T19:04:32.123Z,71.40
2022-10-28T19:05:32.073Z,71.30
2022-10-28T19:06:32.345Z,71.30
2022-10-28T19:07:32.061Z,71.20
2022-10-28T19:08:32.085Z,71.60
2022-10-28T19:09:32.057Z,71.30
2022-10-28T19:10:32.020Z,71.09
2022-10-28T19:11:32.011Z,72.21
2022-10-28T19:12:31.992Z,71.50
2022-10-28T19:13:32.000Z,71.40
2022-10-28T19:14:31.969Z,71.20
2022-10-28T19:15:31.961Z,71.30
2022-10-28T19:16:31.960Z,71.00
2022-10-28T19:17:31.935Z,71.60
2022-10-28T19:18:31.964Z,71.60
2022-10-28T19:19:35.526Z,71.20
2022-10-28T19:20:32.903Z,71.40
2022-10-28T19:21:31.934Z,71.20
2022-10-28T19:22:31.974Z,71.09
2022-10-28T19:23:31.866Z,71.40
2022-10-28T19:24:33.679Z,72.14
2022-10-28T19:25:31.844Z,71.91
2022-10-28T19:26:32.008Z,72.14
2022-10-28T19:27:31.826Z,71.73
2022-10-28T19:28:31.864Z,71.94
2022-10-28T19:29:31.836Z,72.14
2022-10-28T19:30:31.804Z,72.65
2022-10-28T19:31:31.797Z,72.75
2022-10-28T19:32:31.807Z,72.78
2022-10-28T19:33:31.788Z,72.48
2022-10-28T19:34:31.743Z,73.19
2022-10-28T19:35:31.735Z,73.49
2022-10-28T19:36:31.786Z,73.32
2022-10-28T19:37:31.715Z,73.43
2022-10-28T19:38:31.713Z,74.04
2022-10-28T19:39:31.724Z,75.45
2022-10-28T19:40:31.766Z,74.13
2022-10-28T19:41:31.678Z,74.04
2022-10-28T19:42:31.663Z,75.35
2022-10-28T19:43:31.689Z,75.04
2022-10-28T19:44:31.668Z,75.08
2022-10-28T19:45:31.639Z,74.68
2022-10-28T19:46:31.606Z,75.79
2022-10-28T19:47:31.639Z,74.91
2022-10-28T19:48:31.601Z,74.91
2022-10-28T19:49:37.153Z,75.08
2022-10-28T19:50:32.558Z,74.81
2022-10-28T19:51:31.569Z,75.12
2022-10-28T19:52:31.544Z,74.51
2022-10-28T19:53:31.594Z,75.01
2022-10-28T19:54:31.543Z,75.32
2022-10-28T19:55:31.571Z,74.71
2022-10-28T19:56:31.503Z,74.81
2022-10-28T19:57:31.500Z,74.41
2022-10-28T19:58:31.484Z,75.52
2022-10-28T19:59:31.485Z,74.77
2022-10-28T20:00:31.476Z,74.88
2022-10-28T20:01:31.668Z,74.88
2022-10-28T20:02:31.535Z,74.07
2022-10-28T20:03:34.416Z,73.36
2022-10-28T20:04:31.434Z,73.32
2022-10-28T20:05:31.409Z,73.76
2022-10-28T20:06:31.455Z,73.53
2022-10-28T20:07:31.375Z,73.22
2022-10-28T20:08:31.384Z,74.13
2022-10-28T20:09:31.367Z,72.92
2022-10-28T20:10:31.339Z,73.02
2022-10-28T20:11:31.404Z,73.32
2022-10-28T20:12:31.327Z,72.88
2022-10-28T20:13:31.318Z,72.99
2022-10-28T20:14:31.420Z,73.19
2022-10-28T20:15:31.283Z,72.99
2022-10-28T20:16:31.282Z,73.09
2022-10-28T20:17:31.311Z,72.99
2022-10-28T20:18:31.269Z,72.78
2022-10-28T20:19:31.225Z,73.39
2022-10-28T20:20:31.243Z,73.49
2022-10-28T20:21:31.208Z,73.29
2022-10-28T20:22:31.263Z,73.59
2022-10-28T20:23:31.240Z,72.68
2022-10-28T20:24:31.202Z,74.10
2022-10-28T20:25:31.178Z,73.69
2022-10-28T20:26:31.166Z,72.88
2022-10-28T20:27:31.181Z,72.58
2022-10-28T20:28:31.140Z,72.58
2022-10-28T20:29:31.165Z,72.88
2022-10-28T20:30:31.121Z,73.76
2022-10-28T20:31:31.104Z,72.88
2022-10-28T20:32:31.084Z,72.65
2022-10-28T20:33:31.099Z,72.44
2022-10-28T20:34:31.065Z,73.15
2022-10-28T20:35:31.042Z,72.85
2022-10-28T20:36:31.064Z,72.34
2022-10-28T20:37:31.044Z,72.44
2022-10-28T20:38:31.010Z,72.75
2022-10-28T20:39:31.012Z,73.15
2022-10-28T20:40:31.028Z,72.24
2022-10-28T20:41:30.974Z,71.94
2022-10-28T20:42:30.988Z,71.60
2022-10-28T20:43:30.952Z,71.94
2022-10-28T20:44:30.963Z,71.60
2022-10-28T20:45:30.961Z,71.91
2022-10-28T20:46:30.925Z,71.60
2022-10-28T20:47:30.964Z,71.60
2022-10-28T20:48:30.904Z,71.00
2022-10-28T20:49:30.884Z,71.80
2022-10-28T20:50:30.879Z,71.60
2022-10-28T20:51:30.878Z,71.30
2022-10-28T20:52:30.904Z,71.80
2022-10-28T20:53:30.996Z,71.70
2022-10-28T20:54:30.845Z,71.26
2022-10-28T20:55:30.841Z,70.66
2022-10-28T20:56:30.835Z,70.96
2022-10-28T20:57:30.792Z,70.56
2022-10-28T20:58:30.805Z,71.06
2022-10-28T20:59:30.828Z,70.12
2022-10-28T21:00:30.766Z,71.44
2022-10-28T21:01:30.888Z,70.73
2022-10-28T21:02:31.047Z,69.42
2022-10-28T21:03:30.769Z,70.42
2022-10-28T21:04:30.721Z,70.62
2022-10-28T21:05:30.778Z,69.92
2022-10-28T21:06:30.693Z,69.28
2022-10-28T21:07:30.705Z,69.78
2022-10-28T21:08:39.618Z,69.11
2022-10-28T21:09:30.803Z,69.08
2022-10-28T21:10:30.809Z,69.68
2022-10-28T21:11:31.295Z,69.68
2022-10-28T21:12:30.693Z,68.87
2022-10-28T21:13:30.614Z,69.68
2022-10-28T21:14:30.653Z,68.47
2022-10-28T21:15:30.593Z,69.08
2022-10-28T21:16:30.601Z,68.44
2022-10-28T21:17:30.612Z,68.33
2022-10-28T21:18:30.561Z,68.74
2022-10-28T21:19:30.586Z,68.84
2022-10-28T21:20:30.569Z,68.64
2022-10-28T21:21:30.526Z,69.24
2022-10-28T21:22:30.521Z,69.15
2022-10-28T21:23:37.930Z,68.87
2022-10-28T21:24:30.503Z,68.87
2022-10-28T21:25:30.578Z,68.87
2022-10-28T21:26:30.555Z,69.68
2022-10-28T21:27:30.491Z,69.08
2022-10-28T21:28:30.482Z,69.58
2022-10-28T21:29:30.544Z,68.87
2022-10-28T21:30:30.648Z,69.89
2022-10-28T21:31:30.450Z,70.09
2022-10-28T21:32:30.462Z,70.19
2022-10-28T21:33:30.473Z,69.89
2022-10-28T21:34:30.440Z,70.89
2022-10-28T21:35:30.396Z,70.49
2022-10-28T21:36:30.378Z,69.98
2022-10-28T21:37:30.371Z,70.49
2022-10-28T21:38:30.359Z,70.59
2022-10-28T21:39:30.376Z,70.62
2022-10-28T21:40:30.396Z,70.49
2022-10-28T21:41:30.376Z,70.19
2022-10-28T21:42:30.333Z,71.30
2022-10-28T21:43:30.359Z,71.23
2022-10-28T21:44:30.279Z,70.79
2022-10-28T21:45:30.295Z,70.39
2022-10-28T21:46:30.300Z,71.00
2022-10-28T21:47:30.237Z,70.69
2022-10-28T21:48:30.230Z,71.40
2022-10-28T21:49:30.216Z,70.79
2022-10-28T21:50:30.237Z,71.20
2022-10-28T21:51:30.217Z,71.00
2022-10-28T21:52:30.184Z,70.83
2022-10-28T21:53:30.201Z,70.79
2022-10-28T21:54:30.192Z,71.20
2022-10-28T21:55:42.083Z,70.29
2022-10-28T21:56:31.136Z,70.29
2022-10-28T21:57:37.689Z,70.49
2022-10-28T21:58:30.125Z,70.59
2022-10-28T21:59:30.088Z,70.59
2022-10-28T22:00:30.084Z,70.79
2022-10-28T22:01:30.258Z,71.30
2022-10-28T22:02:30.217Z,71.20
2022-10-28T22:03:30.083Z,70.89
2022-10-28T22:04:30.034Z,71.30
2022-10-28T22:05:30.029Z,71.73
2022-10-28T22:06:30.018Z,71.44
2022-10-28T22:07:30.036Z,71.44
2022-10-28T22:08:29.985Z,71.84
2022-10-28T22:09:33.532Z,71.84
2022-10-28T22:10:30.982Z,71.94
2022-10-28T22:11:29.976Z,71.73
2022-10-28T22:12:29.947Z,72.48
2022-10-28T22:13:29.948Z,72.58
2022-10-28T22:14:29.929Z,72.58
2022-10-28T22:15:29.917Z,72.58
2022-10-28T22:16:29.923Z,72.88
2022-10-28T22:17:29.886Z,72.48
2022-10-28T22:18:29.877Z,73.39
2022-10-28T22:19:29.885Z,73.43
2022-10-28T22:20:29.864Z,73.12
2022-10-28T22:21:29.881Z,72.51
2022-10-28T22:22:29.849Z,73.93
2022-10-28T22:23:29.855Z,73.12
2022-10-28T22:24:29.814Z,73.72
2022-10-28T22:25:29.798Z,73.63
2022-10-28T22:26:29.806Z,73.63
2022-10-28T22:27:29.780Z,73.52
2022-10-28T22:28:29.771Z,73.93
2022-10-28T22:29:29.754Z,73.72
2022-10-28T22:30:29.770Z,73.52
2022-10-28T22:31:29.758Z,73.22
2022-10-28T22:32:29.723Z,73.63
2022-10-28T22:33:29.825Z,74.03
2022-10-28T22:34:29.700Z,73.52
2022-10-28T22:35:29.690Z,73.32
2022-10-28T22:36:29.704Z,73.52
2022-10-28T22:37:29.671Z,73.43
2022-10-28T22:38:29.651Z,73.43
2022-10-28T22:39:29.656Z,73.83
2022-10-28T22:40:29.638Z,73.63
2022-10-28T22:41:29.637Z,73.46
2022-10-28T22:42:29.612Z,73.22
2022-10-28T22:43:29.593Z,73.36
2022-10-28T22:44:29.597Z,73.76
2022-10-28T22:45:29.575Z,73.25
2022-10-28T22:46:29.585Z,73.72
2022-10-28T22:47:29.546Z,73.66
2022-10-28T22:48:29.543Z,73.76
2022-10-28T22:49:29.527Z,73.76
2022-10-28T22:50:29.543Z,74.07
2022-10-28T22:51:29.521Z,74.77
2022-10-28T22:52:29.514Z,74.67
2022-10-28T22:53:29.482Z,75.01
2022-10-28T22:54:29.479Z,74.91
2022-10-28T22:55:29.492Z,74.71
2022-10-28T22:56:29.473Z,74.81
2022-10-28T22:57:29.438Z,75.52
2022-10-28T22:58:29.446Z,75.52
2022-10-28T22:59:29.422Z,75.85
2022-10-28T23:00:29.407Z,76.87
2022-10-28T23:01:29.537Z,75.85
2022-10-28T23:02:29.504Z,76.36
2022-10-28T23:03:29.398Z,76.77
2022-10-28T23:04:29.359Z,76.60
2022-10-28T23:05:29.356Z,76.70
2022-10-28T23:06:29.359Z,76.56
2022-10-28T23:07:29.344Z,76.70
2022-10-28T23:08:29.319Z,76.50
2022-10-28T23:09:29.349Z,76.90
2022-10-28T23:10:29.295Z,77.21
2022-10-28T23:11:29.297Z,77.21
2022-10-28T23:12:29.271Z,77.31
2022-10-28T23:13:29.343Z,77.21
2022-10-28T23:14:29.292Z,77.11
2022-10-28T23:15:29.237Z,77.41
2022-10-28T23:16:29.223Z,77.21
2022-10-28T23:17:29.214Z,77.51
2022-10-28T23:18:29.194Z,77.31
2022-10-28T23:19:29.209Z,77.41
2022-10-28T23:20:29.189Z,77.41
2022-10-28T23:21:29.168Z,77.21
2022-10-28T23:22:29.151Z,77.31
2022-10-28T23:23:29.144Z,77.51
2022-10-28T23:24:29.156Z,77.21
2022-10-28T23:25:29.160Z,77.31
2022-10-28T23:26:29.111Z,77.61
2022-10-28T23:27:29.109Z,77.78
2022-10-28T23:28:29.089Z,78.12
2022-10-28T23:29:29.086Z,78.22
2022-10-28T23:30:29.059Z,78.22
2022-10-28T23:31:29.057Z,78.02
2022-10-28T23:32:29.040Z,78.53
2022-10-28T23:33:29.023Z,79.03
2022-10-28T23:34:29.043Z,79.24
2022-10-28T23:35:29.003Z,78.83
2022-10-28T23:36:28.991Z,78.63
2022-10-28T23:37:28.977Z,79.38
2022-10-28T23:38:28.964Z,78.87
2022-10-28T23:39:28.992Z,79.17
2022-10-28T23:40:28.946Z,79.47
2022-10-28T23:41:28.951Z,79.17
2022-10-28T23:42:28.919Z,79.58
2022-10-28T23:43:28.931Z,79.38
2022-10-28T23:44:28.924Z,79.27
2022-10-28T23:45:28.889Z,79.98
2022-10-28T23:46:32.284Z,79.88
2022-10-28T23:47:29.864Z,79.58
2022-10-28T23:48:28.855Z,79.38
2022-10-28T23:49:28.866Z,79.47
2022-10-28T23:50:28.846Z,79.98
2022-10-28T23:51:28.821Z,80.19
2022-10-28T23:52:28.810Z,79.38
2022-10-28T23:54:28.791Z,79.47
2022-10-28T23:55:28.810Z,79.98
2022-10-28T23:56:28.761Z,79.47
2022-10-28T23:57:28.756Z,79.38
2022-10-28T23:58:28.752Z,79.58
2022-10-28T23:59:28.744Z,79.94
